createdAt,value
2019-04-28T00:01:57.963Z,99125.09
2019-04-28T00:04:34.214Z,99128.85
2019-04-28T00:07:11.911Z,99129.59
2019-04-28T00:09:47.977Z,99130.54
2019-04-28T00:12:23.924Z,99127.52
2019-04-28T00:14:59.888Z,99120.62
2019-04-28T00:17:35.850Z,99122.09
2019-04-28T00:20:13.647Z,99124.37
2019-04-28T00:23:01.394Z,99116.96
2019-04-28T00:25:41.066Z,99122.42
2019-04-28T00:28:17.079Z,99120.45
2019-04-28T00:30:53.130Z,99124.59
2019-04-28T00:33:29.099Z,99117.92
2019-04-28T00:36:05.145Z,99117.18
2019-04-28T00:38:41.572Z,99112.83
2019-04-28T00:41:17.596Z,99109.42
2019-04-28T00:43:53.637Z,99113.36
2019-04-28T00:46:31.193Z,99109.37
2019-04-28T00:49:07.291Z,99109.73
2019-04-28T00:51:43.421Z,99104.51
2019-04-28T00:54:19.401Z,99103.42
2019-04-28T00:56:56.074Z,99103.92
2019-04-28T00:59:32.039Z,99111.52
2019-04-28T01:02:11.127Z,99107.42
2019-04-28T01:04:47.217Z,99111.78
2019-04-28T01:07:23.184Z,99113.59
2019-04-28T01:09:59.132Z,99115.91
2019-04-28T01:12:35.397Z,99113.24
2019-04-28T01:15:13.819Z,99115.06
2019-04-28T01:17:54.383Z,99109.73
2019-04-28T01:20:30.340Z,99114.81
2019-04-28T01:23:06.287Z,99123.88
2019-04-28T01:25:42.241Z,99129.55
2019-04-28T01:28:19.488Z,99134.23
2019-04-28T01:30:57.538Z,99132.52
2019-04-28T01:33:44.389Z,99132.13
2019-04-28T01:36:20.413Z,99133.20
2019-04-28T01:38:56.363Z,99121.59
2019-04-28T01:41:32.336Z,99124.34
2019-04-28T01:44:10.097Z,99117.28
2019-04-28T01:46:45.874Z,99120.08
2019-04-28T01:49:21.841Z,99129.89
2019-04-28T01:52:01.047Z,99119.56
2019-04-28T01:54:37.123Z,99122.75
2019-04-28T01:57:13.077Z,99118.62
2019-04-28T01:59:49.970Z,99122.41
2019-04-28T02:02:26.016Z,99122.88
2019-04-28T02:05:01.983Z,99128.69
2019-04-28T02:07:37.941Z,99130.53
2019-04-28T02:10:14.100Z,99135.86
2019-04-28T02:12:50.393Z,99130.41
2019-04-28T02:15:26.514Z,99128.33
2019-04-28T02:18:02.471Z,99133.94
2019-04-28T02:20:40.076Z,99137.00
2019-04-28T02:23:17.556Z,99139.78
2019-04-28T02:25:53.518Z,99142.94
2019-04-28T02:28:29.685Z,99143.35
2019-04-28T02:31:05.645Z,99148.42
2019-04-28T02:33:41.808Z,99152.62
2019-04-28T02:36:20.690Z,99151.34
2019-04-28T02:38:57.698Z,99152.75
2019-04-28T02:41:33.953Z,99153.49
2019-04-28T02:44:10.453Z,99144.92
2019-04-28T02:46:46.912Z,99148.69
2019-04-28T02:49:30.512Z,99147.23
2019-04-28T02:52:10.678Z,99145.52
2019-04-28T02:54:46.801Z,99141.64
2019-04-28T02:57:23.015Z,99152.53
2019-04-28T03:00:00.433Z,99154.58
2019-04-28T03:02:36.562Z,99151.91
2019-04-28T03:05:12.533Z,99151.30
2019-04-28T03:07:51.431Z,99155.52
2019-04-28T03:10:27.610Z,99159.35
2019-04-28T03:13:03.565Z,99159.09
2019-04-28T03:15:41.398Z,99162.30
2019-04-28T03:18:17.221Z,99166.30
2019-04-28T03:20:53.174Z,99168.86
2019-04-28T03:23:31.141Z,99164.73
2019-04-28T03:26:14.828Z,99161.95
2019-04-28T03:29:01.342Z,99166.55
2019-04-28T03:32:04.235Z,99169.70
2019-04-28T03:34:16.612Z,99171.78
2019-04-28T03:36:52.655Z,99176.69
2019-04-28T03:39:30.301Z,99171.00
2019-04-28T03:42:06.438Z,99169.33
2019-04-28T03:44:42.386Z,99171.58
2019-04-28T03:47:21.038Z,99177.13
2019-04-28T03:49:57.124Z,99181.70
2019-04-28T03:52:33.133Z,99185.70
2019-04-28T03:55:11.749Z,99184.50
2019-04-28T03:57:47.080Z,99191.28
2019-04-28T04:00:23.051Z,99194.27
2019-04-28T04:03:00.808Z,99199.69
2019-04-28T04:05:36.690Z,99209.66
2019-04-28T04:08:12.654Z,99221.06
2019-04-28T04:10:50.449Z,99225.94
2019-04-28T04:13:41.601Z,99239.03
2019-04-28T04:16:20.677Z,99230.69
2019-04-28T04:19:00.734Z,99235.75
2019-04-28T04:21:36.173Z,99239.70
2019-04-28T04:24:12.078Z,99230.25
2019-04-28T04:26:50.491Z,99234.46
2019-04-28T04:29:25.755Z,99251.71
2019-04-28T04:32:11.713Z,99244.94
2019-04-28T04:34:40.851Z,99235.57
2019-04-28T04:37:16.950Z,99243.20
2019-04-28T04:39:52.859Z,99256.81
2019-04-28T04:42:30.602Z,99260.41
2019-04-28T04:45:06.968Z,99262.40
2019-04-28T04:47:42.926Z,99268.20
2019-04-28T04:50:20.879Z,99275.31
2019-04-28T04:52:56.456Z,99276.02
2019-04-28T04:55:33.088Z,99278.94
2019-04-28T04:58:10.765Z,99274.47
2019-04-28T05:01:00.839Z,99271.05
2019-04-28T05:03:44.421Z,99287.02
2019-04-28T05:06:36.811Z,99290.28
2019-04-28T05:09:12.752Z,99288.20
2019-04-28T05:11:49.968Z,99298.69
2019-04-28T05:14:26.048Z,99300.14
2019-04-28T05:17:01.932Z,99298.84
2019-04-28T05:19:40.041Z,99306.91
2019-04-28T05:22:17.057Z,99292.22
2019-04-28T05:24:57.496Z,99312.36
2019-04-28T05:27:33.420Z,99326.51
2019-04-28T05:30:10.428Z,99309.58
2019-04-28T05:32:53.639Z,99317.34
2019-04-28T05:35:25.258Z,99317.05
2019-04-28T05:38:01.281Z,99318.02
2019-04-28T05:40:37.238Z,99332.44
2019-04-28T05:43:13.218Z,99323.79
2019-04-28T05:45:49.889Z,99320.06
2019-04-28T05:48:36.425Z,99310.05
2019-04-28T05:51:23.582Z,99313.16
2019-04-28T05:54:01.337Z,99321.52
2019-04-28T05:56:44.654Z,99324.98
2019-04-28T05:59:22.134Z,99328.27
2019-04-28T06:02:02.297Z,99333.77
2019-04-28T06:04:38.321Z,99361.19
2019-04-28T06:07:20.233Z,99336.34
2019-04-28T06:09:55.916Z,99354.06
2019-04-28T06:12:31.993Z,99335.28
2019-04-28T06:15:10.370Z,99346.61
2019-04-28T06:17:45.737Z,99343.95
2019-04-28T06:20:21.643Z,99337.03
2019-04-28T06:22:57.612Z,99340.18
2019-04-28T06:25:33.560Z,99347.50
2019-04-28T06:28:09.728Z,99350.79
2019-04-28T06:30:45.664Z,99350.21
2019-04-28T06:33:21.624Z,99341.36
2019-04-28T06:35:57.591Z,99348.92
2019-04-28T06:38:33.456Z,99342.44
2019-04-28T06:41:09.686Z,99347.63
2019-04-28T06:43:45.567Z,99344.30
2019-04-28T06:46:21.582Z,99344.24
2019-04-28T06:48:57.577Z,99342.98
2019-04-28T06:51:33.482Z,99340.09
2019-04-28T06:54:10.923Z,99358.04
2019-04-28T06:56:46.883Z,99347.55
2019-04-28T06:59:23.953Z,99370.66
2019-04-28T07:02:00.946Z,99345.92
2019-04-28T07:04:36.889Z,99347.00
2019-04-28T07:07:12.860Z,99348.50
2019-04-28T07:09:48.824Z,99352.30
2019-04-28T07:12:24.769Z,99357.17
2019-04-28T07:15:00.634Z,99360.33
2019-04-28T07:17:37.051Z,99352.92
2019-04-28T07:20:18.870Z,99379.03
2019-04-28T07:22:54.828Z,99360.20
2019-04-28T07:25:31.107Z,99367.78
2019-04-28T07:28:07.049Z,99369.83
2019-04-28T07:30:43.108Z,99378.64
2019-04-28T07:33:21.481Z,99375.66
2019-04-28T07:35:57.487Z,99370.55
2019-04-28T07:38:33.446Z,99368.30
2019-04-28T07:41:09.389Z,99374.17
2019-04-28T07:43:45.369Z,99381.17
2019-04-28T07:46:21.334Z,99381.97
2019-04-28T07:48:57.275Z,99382.80
2019-04-28T07:51:37.724Z,99376.45
2019-04-28T07:54:15.215Z,99385.56
2019-04-28T07:56:51.277Z,99384.48
2019-04-28T07:59:27.231Z,99383.31
2019-04-28T08:02:03.191Z,99386.82
2019-04-28T08:04:39.150Z,99382.33
2019-04-28T08:07:15.099Z,99388.64
2019-04-28T08:09:51.066Z,99388.75
2019-04-28T08:12:26.971Z,99386.02
2019-04-28T08:15:03.081Z,99390.20
2019-04-28T08:17:39.659Z,99396.12
2019-04-28T08:20:15.812Z,99396.59
2019-04-28T08:22:51.768Z,99424.81
2019-04-28T08:25:27.731Z,99405.94
2019-04-28T08:28:04.812Z,99402.52
2019-04-28T08:30:40.753Z,99397.22
2019-04-28T08:33:18.249Z,99398.48
2019-04-28T08:35:54.216Z,99412.84
2019-04-28T08:38:30.261Z,99404.45
2019-04-28T08:41:06.220Z,99405.56
2019-04-28T08:43:42.950Z,99404.16
2019-04-28T08:46:18.826Z,99408.81
2019-04-28T08:48:54.747Z,99417.52
2019-04-28T08:51:30.670Z,99421.94
2019-04-28T08:54:06.683Z,99423.73
2019-04-28T08:56:42.587Z,99427.46
2019-04-28T08:59:18.718Z,99419.16
2019-04-28T09:01:54.635Z,99437.50
2019-04-28T09:04:30.542Z,99427.06
2019-04-28T09:07:06.498Z,99432.36
2019-04-28T09:12:30.369Z,99431.86
2019-04-28T09:15:10.718Z,99434.92
2019-04-28T09:17:47.096Z,99427.64
2019-04-28T09:20:23.063Z,99432.84
2019-04-28T09:22:59.020Z,99434.92
2019-04-28T09:25:34.966Z,99436.75
2019-04-28T09:28:11.446Z,99441.50
2019-04-28T09:30:47.905Z,99446.72
2019-04-28T09:33:23.962Z,99445.13
2019-04-28T09:35:59.919Z,99435.17
2019-04-28T09:38:36.623Z,99439.56
2019-04-28T09:41:12.550Z,99438.97
2019-04-28T09:43:56.389Z,99445.52
2019-04-28T09:46:39.920Z,99443.69
2019-04-28T09:49:15.890Z,99440.27
2019-04-28T09:51:51.946Z,99438.94
2019-04-28T09:54:28.007Z,99437.63
2019-04-28T09:57:04.160Z,99455.02
2019-04-28T09:59:40.319Z,99448.80
2019-04-28T10:02:16.694Z,99440.08
2019-04-28T10:04:54.177Z,99437.26
2019-04-28T10:07:30.100Z,99445.05
2019-04-28T10:10:08.455Z,99454.66
2019-04-28T10:12:44.352Z,99442.62
2019-04-28T10:15:20.570Z,99438.95
2019-04-28T10:17:56.933Z,99434.81
2019-04-28T10:20:32.895Z,99440.05
2019-04-28T10:23:08.852Z,99433.62
2019-04-28T10:25:46.174Z,99423.73
2019-04-28T10:28:22.092Z,99431.64
2019-04-28T10:30:58.192Z,99433.25
2019-04-28T10:33:34.101Z,99427.67
2019-04-28T10:36:10.057Z,99430.57
2019-04-28T10:38:47.614Z,99421.44
2019-04-28T10:41:28.262Z,99427.52
2019-04-28T10:44:05.302Z,99428.13
2019-04-28T10:46:41.977Z,99428.13
2019-04-28T10:49:20.332Z,99423.03
2019-04-28T10:51:59.578Z,99434.59
2019-04-28T10:54:33.949Z,99438.96
2019-04-28T10:57:09.915Z,99429.97
2019-04-28T10:59:45.971Z,99416.20
2019-04-28T11:02:21.876Z,99423.85
2019-04-28T11:05:08.584Z,99416.42
2019-04-28T11:07:39.834Z,99421.16
2019-04-28T11:10:22.268Z,99418.73
2019-04-28T11:12:58.241Z,99421.28
2019-04-28T11:15:37.981Z,99417.73
2019-04-28T11:18:15.489Z,99430.78
2019-04-28T11:20:51.474Z,99415.71
2019-04-28T11:23:27.386Z,99415.84
2019-04-28T11:26:03.275Z,99418.90
2019-04-28T11:28:39.289Z,99420.81
2019-04-28T11:31:15.358Z,99418.36
2019-04-28T11:33:53.919Z,99442.12
2019-04-28T11:36:29.941Z,99418.37
2019-04-28T11:39:08.687Z,99425.39
2019-04-28T11:41:46.152Z,99409.60
2019-04-28T11:44:22.258Z,99413.48
2019-04-28T11:46:58.359Z,99419.84
2019-04-28T11:49:34.325Z,99424.09
2019-04-28T11:52:10.343Z,99420.33
2019-04-28T11:54:46.328Z,99411.18
2019-04-28T11:57:22.288Z,99416.16
2019-04-28T11:59:58.255Z,99430.05
2019-04-28T12:02:34.197Z,99419.30
2019-04-28T12:05:11.401Z,99422.31
2019-04-28T12:07:47.337Z,99429.30
2019-04-28T12:10:37.233Z,99439.89
2019-04-28T12:13:17.683Z,99422.58
2019-04-28T12:15:58.159Z,99430.35
2019-04-28T12:18:44.859Z,99432.56
2019-04-28T12:21:21.231Z,99420.77
2019-04-28T12:23:57.194Z,99437.28
2019-04-28T12:26:33.147Z,99429.30
2019-04-28T12:29:09.105Z,99420.38
2019-04-28T12:31:45.056Z,99430.39
2019-04-28T12:34:21.002Z,99424.91
2019-04-28T12:36:56.972Z,99417.48
2019-04-28T12:39:33.018Z,99419.81
2019-04-28T12:42:09.956Z,99425.65
2019-04-28T12:44:46.257Z,99421.10
2019-04-28T12:47:22.228Z,99423.32
2019-04-28T12:49:59.828Z,99406.56
2019-04-28T12:52:35.873Z,99419.97
2019-04-28T12:55:12.138Z,99420.47
2019-04-28T12:57:48.101Z,99419.16
2019-04-28T13:00:28.905Z,99425.71
2019-04-28T13:03:22.948Z,99414.02
2019-04-28T13:06:04.004Z,99411.98
2019-04-28T13:08:38.734Z,99415.73
2019-04-28T13:11:16.058Z,99420.84
2019-04-28T13:13:52.106Z,99418.77
2019-04-28T13:16:28.059Z,99417.55
2019-04-28T13:19:04.582Z,99414.98
2019-04-28T13:21:42.262Z,99417.41
2019-04-28T13:24:18.184Z,99421.91
2019-04-28T13:26:54.452Z,99414.48
2019-04-28T13:29:30.493Z,99417.52
2019-04-28T13:32:07.573Z,99412.80
2019-04-28T13:34:43.972Z,99411.22
2019-04-28T13:37:20.013Z,99399.92
2019-04-28T13:40:00.564Z,99414.52
2019-04-28T13:42:36.537Z,99415.98
2019-04-28T13:45:14.464Z,99421.44
2019-04-28T13:47:50.393Z,99411.97
2019-04-28T13:50:31.364Z,99419.13
2019-04-28T13:53:07.836Z,99413.89
2019-04-28T13:55:48.706Z,99414.73
2019-04-28T13:58:26.313Z,99414.37
2019-04-28T14:01:07.322Z,99408.64
2019-04-28T14:04:00.422Z,99414.34
2019-04-28T14:06:38.020Z,99418.21
2019-04-28T14:09:15.775Z,99422.81
2019-04-28T14:11:51.772Z,99416.31
2019-04-28T14:14:27.717Z,99416.48
2019-04-28T14:17:03.844Z,99419.44
2019-04-28T14:19:39.961Z,99422.08
2019-04-28T14:22:16.009Z,99422.17
2019-04-28T14:24:51.997Z,99427.06
2019-04-28T14:27:28.196Z,99432.94
2019-04-28T14:30:06.075Z,99422.09
2019-04-28T14:32:42.099Z,99424.50
2019-04-28T14:35:18.259Z,99430.98
2019-04-28T14:37:54.230Z,99431.42
2019-04-28T14:40:33.616Z,99428.98
2019-04-28T14:43:10.335Z,99431.17
2019-04-28T14:45:46.589Z,99439.83
2019-04-28T14:48:22.535Z,99440.88
2019-04-28T14:50:58.496Z,99438.98
2019-04-28T14:53:34.671Z,99442.03
2019-04-28T14:56:10.723Z,99438.03
2019-04-28T14:58:47.641Z,99445.06
2019-04-28T15:01:37.214Z,99447.41
2019-04-28T15:04:16.603Z,99456.46
2019-04-28T15:07:06.286Z,99451.30
2019-04-28T15:10:00.272Z,99457.09
2019-04-28T15:12:37.450Z,99458.03
2019-04-28T15:15:13.721Z,99448.27
2019-04-28T15:17:49.820Z,99451.09
2019-04-28T15:20:26.020Z,99447.45
2019-04-28T15:23:03.121Z,99450.77
2019-04-28T15:25:39.183Z,99456.39
2019-04-28T15:28:15.242Z,99455.16
2019-04-28T15:30:51.302Z,99456.49
2019-04-28T15:33:27.246Z,99461.72
2019-04-28T15:36:03.215Z,99457.19
2019-04-28T15:38:39.285Z,99452.55
2019-04-28T15:41:21.808Z,99459.55
2019-04-28T15:43:52.917Z,99459.55
2019-04-28T15:46:28.873Z,99458.14
2019-04-28T15:49:04.839Z,99456.55
2019-04-28T15:51:40.728Z,99450.92
2019-04-28T15:54:16.775Z,99446.56
2019-04-28T15:56:52.703Z,99450.52
2019-04-28T15:59:28.770Z,99459.69
2019-04-28T16:02:04.866Z,99445.94
2019-04-28T16:04:41.344Z,99447.89
2019-04-28T16:07:24.656Z,99445.48
2019-04-28T16:09:55.044Z,99451.02
2019-04-28T16:12:31.102Z,99453.98
2019-04-28T16:15:07.640Z,99448.47
2019-04-28T16:17:43.625Z,99455.27
2019-04-28T16:20:19.685Z,99456.17
2019-04-28T16:22:55.958Z,99445.50
2019-04-28T16:25:31.901Z,99451.27
2019-04-28T16:28:09.404Z,99450.03
2019-04-28T16:30:45.354Z,99453.23
2019-04-28T16:33:21.306Z,99452.94
2019-04-28T16:35:58.402Z,99454.31
2019-04-28T16:38:34.359Z,99453.20
2019-04-28T16:41:11.334Z,99460.93
2019-04-28T16:43:47.944Z,99452.31
2019-04-28T16:46:23.957Z,99453.11
2019-04-28T16:48:59.918Z,99447.91
2019-04-28T16:51:35.882Z,99455.63
2019-04-28T16:54:11.941Z,99459.09
2019-04-28T16:56:59.369Z,99459.98
2019-04-28T16:59:46.073Z,99451.72
2019-04-28T17:02:23.577Z,99450.47
2019-04-28T17:04:59.521Z,99458.59
2019-04-28T17:07:35.414Z,99452.90
2019-04-28T17:10:11.540Z,99455.90
2019-04-28T17:12:47.483Z,99457.32
2019-04-28T17:15:23.655Z,99459.41
2019-04-28T17:17:59.603Z,99459.71
2019-04-28T17:20:35.748Z,99460.59
2019-04-28T17:23:13.724Z,99463.12
2019-04-28T17:25:50.035Z,99461.03
2019-04-28T17:28:26.089Z,99466.02
2019-04-28T17:31:02.119Z,99465.55
2019-04-28T17:33:38.114Z,99464.44
2019-04-28T17:36:14.061Z,99461.58
2019-04-28T17:38:50.034Z,99468.63
2019-04-28T17:41:26.282Z,99469.29
2019-04-28T17:44:02.237Z,99470.53
2019-04-28T17:46:38.311Z,99467.11
2019-04-28T17:49:14.263Z,99467.89
2019-04-28T17:51:50.800Z,99465.03
2019-04-28T17:54:26.749Z,99465.03
2019-04-28T17:57:02.737Z,99477.14
2019-04-28T17:59:39.104Z,99468.66
2019-04-28T18:02:32.876Z,99478.44
2019-04-28T18:05:13.541Z,99481.39
2019-04-28T18:07:50.740Z,99486.55
2019-04-28T18:10:28.320Z,99489.97
2019-04-28T18:13:04.439Z,99482.00
2019-04-28T18:15:59.999Z,99487.77
2019-04-28T18:18:37.487Z,99489.49
2019-04-28T18:21:13.377Z,99494.53
2019-04-28T18:23:49.412Z,99488.25
2019-04-28T18:26:25.332Z,99491.47
2019-04-28T18:29:01.735Z,99494.61
2019-04-28T18:31:58.029Z,99500.98
2019-04-28T18:34:47.748Z,99505.73
2019-04-28T18:37:40.191Z,99506.02
2019-04-28T18:40:27.083Z,99511.05
2019-04-28T18:43:05.335Z,99504.41
2019-04-28T18:45:41.266Z,99508.03
2019-04-28T18:48:17.151Z,99502.51
2019-04-28T18:50:53.106Z,99503.35
2019-04-28T18:53:28.997Z,99507.34
2019-04-28T18:56:04.953Z,99504.52
2019-04-28T18:58:40.878Z,99505.08
2019-04-28T19:01:33.750Z,99502.70
2019-04-28T19:04:09.771Z,99500.13
2019-04-28T19:06:45.716Z,99499.65
2019-04-28T19:09:23.247Z,99489.78
2019-04-28T19:12:06.741Z,99497.47
2019-04-28T19:14:59.446Z,99505.16
2019-04-28T19:17:43.197Z,99504.69
2019-04-28T19:20:19.144Z,99501.94
2019-04-28T19:22:55.077Z,99504.13
2019-04-28T19:25:30.961Z,99502.02
2019-04-28T19:28:07.865Z,99498.34
2019-04-28T19:30:45.716Z,99497.19
2019-04-28T19:33:22.240Z,99499.08
2019-04-28T19:35:58.421Z,99503.27
2019-04-28T19:38:34.367Z,99505.56
2019-04-28T19:41:10.604Z,99493.77
2019-04-28T19:43:46.553Z,99497.95
2019-04-28T19:46:22.473Z,99494.23
2019-04-28T19:48:58.527Z,99493.50
2019-04-28T19:51:34.910Z,99490.25
2019-04-28T19:54:11.508Z,99491.70
2019-04-28T19:57:07.151Z,99498.06
2019-04-28T20:00:01.716Z,99486.18
2019-04-28T20:02:39.252Z,99483.60
2019-04-28T20:05:15.168Z,99483.23
2019-04-28T20:07:51.215Z,99478.69
2019-04-28T20:10:27.137Z,99487.42
2019-04-28T20:13:03.019Z,99484.64
2019-04-28T20:15:39.030Z,99480.02
2019-04-28T20:18:14.949Z,99477.55
2019-04-28T20:20:50.861Z,99474.41
2019-04-28T20:23:26.993Z,99477.72
2019-04-28T20:26:03.114Z,99484.00
2019-04-28T20:28:39.184Z,99481.14
2019-04-28T20:31:15.068Z,99490.08
2019-04-28T20:33:50.962Z,99492.45
2019-04-28T20:36:32.972Z,99483.14
2019-04-28T20:39:10.716Z,99491.31
2019-04-28T20:41:48.133Z,99488.73
2019-04-28T20:44:24.104Z,99486.28
2019-04-28T20:47:00.030Z,99478.67
2019-04-28T20:49:35.956Z,99478.11
2019-04-28T20:52:11.898Z,99473.44
2019-04-28T20:54:47.784Z,99470.78
2019-04-28T20:57:23.716Z,99470.33
2019-04-28T20:59:59.887Z,99469.17
2019-04-28T21:02:37.605Z,99462.23
2019-04-28T21:05:13.534Z,99461.50
2019-04-28T21:07:49.467Z,99463.39
2019-04-28T21:10:37.291Z,99463.48
2019-04-28T21:13:03.039Z,99466.61
2019-04-28T21:15:38.982Z,99458.16
2019-04-28T21:18:14.925Z,99457.97
2019-04-28T21:20:51.382Z,99455.88
2019-04-28T21:23:27.307Z,99452.00
2019-04-28T21:26:03.185Z,99437.59
2019-04-28T21:28:39.312Z,99441.45
2019-04-28T21:31:15.228Z,99440.32
2019-04-28T21:33:51.164Z,99436.91
2019-04-28T21:36:27.108Z,99434.81
2019-04-28T21:39:03.026Z,99443.75
2019-04-28T21:41:40.716Z,99433.68
2019-04-28T21:44:18.215Z,99435.21
2019-04-28T21:46:58.716Z,99431.59
2019-04-28T21:49:36.205Z,99433.31
2019-04-28T21:52:12.381Z,99428.92
2019-04-28T21:54:48.338Z,99441.73
2019-04-28T21:57:24.224Z,99428.84
2019-04-28T22:00:00.171Z,99425.98
2019-04-28T22:02:36.188Z,99423.81
2019-04-28T22:05:12.343Z,99427.42
2019-04-28T22:07:49.518Z,99446.88
2019-04-28T22:10:25.455Z,99435.00
2019-04-28T22:13:01.416Z,99427.03
2019-04-28T22:15:37.368Z,99438.33
2019-04-28T22:18:13.325Z,99434.63
2019-04-28T22:20:50.420Z,99435.27
2019-04-28T22:23:40.294Z,99444.97
2019-04-28T22:26:32.941Z,99435.95
2019-04-28T22:29:09.526Z,99442.79
2019-04-28T22:31:45.957Z,99434.90
2019-04-28T22:34:22.039Z,99435.75
2019-04-28T22:36:57.991Z,99432.24
2019-04-28T22:39:33.961Z,99416.95
2019-04-28T22:42:11.410Z,99420.66
2019-04-28T22:44:47.473Z,99415.81
2019-04-28T22:47:23.416Z,99408.33
2019-04-28T22:49:59.415Z,99404.83
2019-04-28T22:52:35.381Z,99419.04
2019-04-28T22:55:12.859Z,99403.09
2019-04-28T22:57:50.468Z,99403.85
2019-04-28T23:00:41.159Z,99413.46
2019-04-28T23:03:25.014Z,99403.48
2019-04-28T23:06:01.059Z,99405.56
2019-04-28T23:08:37.015Z,99391.35
2019-04-28T23:11:12.920Z,99386.48
2019-04-28T23:13:48.828Z,99387.65
2019-04-28T23:16:24.721Z,99382.98
2019-04-28T23:19:01.842Z,99379.84
2019-04-28T23:21:40.430Z,99379.56
2019-04-28T23:24:16.358Z,99374.73
2019-04-28T23:26:52.315Z,99365.55
2019-04-28T23:29:30.567Z,99373.11
2019-04-28T23:32:06.103Z,99372.91
2019-04-28T23:34:42.065Z,99371.42
2019-04-28T23:37:17.986Z,99385.63
2019-04-28T23:39:53.894Z,99362.11
2019-04-28T23:42:34.381Z,99364.38
2019-04-28T23:45:12.253Z,99362.77
2019-04-28T23:47:48.127Z,99358.50
2019-04-28T23:50:41.072Z,99366.38
2019-04-28T23:53:18.581Z,99361.07
2019-04-28T23:55:54.505Z,99359.74
2019-04-28T23:58:30.428Z,99355.08
